sensor_id;sensor_type;location;lat;lon;timestamp;P1;durP1;ratioP1;P2;durP2;ratioP2
39218;SDS011;24934;52.752;6.964;2022-10-13T00:01:20;27.27;;;17.63;;
39218;SDS011;24934;52.752;6.964;2022-10-13T00:03:47;28.37;;;17.87;;
39218;SDS011;24934;52.752;6.964;2022-10-13T00:06:14;27.67;;;17.67;;
39218;SDS011;24934;52.752;6.964;2022-10-13T00:08:43;28.50;;;17.47;;
39218;SDS011;24934;52.752;6.964;2022-10-13T00:11:16;28.57;;;17.87;;
39218;SDS011;24934;52.752;6.964;2022-10-13T00:13:43;31.13;;;18.27;;
39218;SDS011;24934;52.752;6.964;2022-10-13T00:16:11;24.07;;;18.10;;
39218;SDS011;24934;52.752;6.964;2022-10-13T00:18:38;30.37;;;18.50;;
39218;SDS011;24934;52.752;6.964;2022-10-13T00:21:07;27.97;;;17.77;;
39218;SDS011;24934;52.752;6.964;2022-10-13T00:23:35;28.03;;;18.10;;
39218;SDS011;24934;52.752;6.964;2022-10-13T00:26:02;31.87;;;17.90;;
39218;SDS011;24934;52.752;6.964;2022-10-13T00:28:29;25.10;;;18.37;;
39218;SDS011;24934;52.752;6.964;2022-10-13T00:30:55;26.50;;;18.77;;
39218;SDS011;24934;52.752;6.964;2022-10-13T00:33:21;35.80;;;19.07;;
39218;SDS011;24934;52.752;6.964;2022-10-13T00:35:47;29.87;;;18.60;;
39218;SDS011;24934;52.752;6.964;2022-10-13T00:38:13;26.30;;;18.53;;
39218;SDS011;24934;52.752;6.964;2022-10-13T00:43:14;25.80;;;17.77;;
39218;SDS011;24934;52.752;6.964;2022-10-13T00:45:44;25.37;;;18.13;;
39218;SDS011;24934;52.752;6.964;2022-10-13T00:48:13;31.43;;;18.57;;
39218;SDS011;24934;52.752;6.964;2022-10-13T00:50:39;28.63;;;18.23;;
39218;SDS011;24934;52.752;6.964;2022-10-13T00:53:06;30.30;;;19.00;;
39218;SDS011;24934;52.752;6.964;2022-10-13T00:55:35;30.23;;;18.63;;
39218;SDS011;24934;52.752;6.964;2022-10-13T00:58:03;29.20;;;18.27;;
39218;SDS011;24934;52.752;6.964;2022-10-13T01:00:32;26.27;;;17.77;;
39218;SDS011;24934;52.752;6.964;2022-10-13T01:02:59;26.40;;;17.37;;
39218;SDS011;24934;52.752;6.964;2022-10-13T01:05:25;28.67;;;17.17;;
39218;SDS011;24934;52.752;6.964;2022-10-13T01:07:51;27.27;;;18.50;;
39218;SDS011;24934;52.752;6.964;2022-10-13T01:10:21;27.47;;;17.67;;
39218;SDS011;24934;52.752;6.964;2022-10-13T01:12:59;29.30;;;17.57;;
39218;SDS011;24934;52.752;6.964;2022-10-13T01:15:41;28.30;;;18.20;;
39218;SDS011;24934;52.752;6.964;2022-10-13T01:20:51;29.60;;;18.10;;
39218;SDS011;24934;52.752;6.964;2022-10-13T01:31:51;34.27;;;18.57;;
39218;SDS011;24934;52.752;6.964;2022-10-13T01:34:45;27.63;;;18.73;;
39218;SDS011;24934;52.752;6.964;2022-10-13T01:37:42;34.87;;;19.30;;
39218;SDS011;24934;52.752;6.964;2022-10-13T01:45:29;28.57;;;19.13;;
39218;SDS011;24934;52.752;6.964;2022-10-13T01:48:00;26.77;;;19.80;;
39218;SDS011;24934;52.752;6.964;2022-10-13T01:50:28;27.93;;;18.77;;
39218;SDS011;24934;52.752;6.964;2022-10-13T01:52:57;28.90;;;19.33;;
39218;SDS011;24934;52.752;6.964;2022-10-13T01:55:25;29.87;;;18.50;;
39218;SDS011;24934;52.752;6.964;2022-10-13T01:57:52;25.77;;;19.10;;
39218;SDS011;24934;52.752;6.964;2022-10-13T02:00:18;27.70;;;18.10;;
39218;SDS011;24934;52.752;6.964;2022-10-13T02:03:04;30.07;;;18.97;;
39218;SDS011;24934;52.752;6.964;2022-10-13T02:06:00;25.87;;;17.73;;
39218;SDS011;24934;52.752;6.964;2022-10-13T02:08:45;27.77;;;18.07;;
39218;SDS011;24934;52.752;6.964;2022-10-13T02:11:22;29.53;;;18.67;;
39218;SDS011;24934;52.752;6.964;2022-10-13T02:16:23;36.90;;;17.93;;
39218;SDS011;24934;52.752;6.964;2022-10-13T02:18:52;28.53;;;18.00;;
39218;SDS011;24934;52.752;6.964;2022-10-13T02:21:21;26.87;;;18.87;;
39218;SDS011;24934;52.752;6.964;2022-10-13T02:23:47;35.50;;;19.20;;
39218;SDS011;24934;52.752;6.964;2022-10-13T02:26:12;26.97;;;18.40;;
39218;SDS011;24934;52.752;6.964;2022-10-13T02:28:38;27.33;;;18.17;;
39218;SDS011;24934;52.752;6.964;2022-10-13T02:31:06;28.13;;;18.93;;
39218;SDS011;24934;52.752;6.964;2022-10-13T02:33:32;28.30;;;18.80;;
39218;SDS011;24934;52.752;6.964;2022-10-13T02:35:58;29.70;;;19.60;;
39218;SDS011;24934;52.752;6.964;2022-10-13T02:38:23;31.40;;;19.47;;
39218;SDS011;24934;52.752;6.964;2022-10-13T02:40:49;34.87;;;19.80;;
39218;SDS011;24934;52.752;6.964;2022-10-13T02:43:15;28.07;;;18.40;;
39218;SDS011;24934;52.752;6.964;2022-10-13T02:45:41;28.47;;;19.37;;
39218;SDS011;24934;52.752;6.964;2022-10-13T02:48:07;27.70;;;19.30;;
39218;SDS011;24934;52.752;6.964;2022-10-13T02:50:32;29.23;;;20.30;;
39218;SDS011;24934;52.752;6.964;2022-10-13T02:52:58;32.17;;;19.47;;
39218;SDS011;24934;52.752;6.964;2022-10-13T02:55:24;29.37;;;19.33;;
39218;SDS011;24934;52.752;6.964;2022-10-13T02:57:49;27.13;;;19.83;;
39218;SDS011;24934;52.752;6.964;2022-10-13T03:00:15;32.63;;;20.80;;
39218;SDS011;24934;52.752;6.964;2022-10-13T03:02:41;30.93;;;20.13;;
39218;SDS011;24934;52.752;6.964;2022-10-13T03:05:07;31.37;;;19.90;;
39218;SDS011;24934;52.752;6.964;2022-10-13T03:07:33;32.03;;;20.27;;
39218;SDS011;24934;52.752;6.964;2022-10-13T03:09:59;31.37;;;19.97;;
39218;SDS011;24934;52.752;6.964;2022-10-13T03:12:25;31.70;;;21.37;;
39218;SDS011;24934;52.752;6.964;2022-10-13T03:14:51;29.47;;;20.73;;
39218;SDS011;24934;52.752;6.964;2022-10-13T03:17:16;30.80;;;20.07;;
39218;SDS011;24934;52.752;6.964;2022-10-13T03:19:42;31.70;;;20.67;;
39218;SDS011;24934;52.752;6.964;2022-10-13T03:22:08;32.90;;;21.13;;
39218;SDS011;24934;52.752;6.964;2022-10-13T03:24:33;31.47;;;20.70;;
39218;SDS011;24934;52.752;6.964;2022-10-13T03:26:59;36.93;;;21.10;;
39218;SDS011;24934;52.752;6.964;2022-10-13T03:29:24;34.33;;;21.00;;
39218;SDS011;24934;52.752;6.964;2022-10-13T03:31:50;25.27;;;20.37;;
39218;SDS011;24934;52.752;6.964;2022-10-13T03:34:16;32.53;;;20.07;;
39218;SDS011;24934;52.752;6.964;2022-10-13T03:36:44;32.27;;;20.00;;
39218;SDS011;24934;52.752;6.964;2022-10-13T03:39:09;26.83;;;20.53;;
39218;SDS011;24934;52.752;6.964;2022-10-13T03:41:35;30.30;;;20.07;;
39218;SDS011;24934;52.752;6.964;2022-10-13T03:44:00;36.63;;;21.80;;
39218;SDS011;24934;52.752;6.964;2022-10-13T03:46:27;31.93;;;20.93;;
39218;SDS011;24934;52.752;6.964;2022-10-13T03:48:53;33.03;;;21.93;;
39218;SDS011;24934;52.752;6.964;2022-10-13T03:51:19;34.23;;;22.90;;
39218;SDS011;24934;52.752;6.964;2022-10-13T03:53:46;35.03;;;24.43;;
39218;SDS011;24934;52.752;6.964;2022-10-13T03:56:13;38.37;;;23.17;;
39218;SDS011;24934;52.752;6.964;2022-10-13T03:58:47;35.20;;;23.97;;
39218;SDS011;24934;52.752;6.964;2022-10-13T04:01:17;36.17;;;22.93;;
39218;SDS011;24934;52.752;6.964;2022-10-13T04:03:43;34.87;;;22.23;;
39218;SDS011;24934;52.752;6.964;2022-10-13T04:06:09;40.20;;;26.47;;
39218;SDS011;24934;52.752;6.964;2022-10-13T04:08:35;52.37;;;31.47;;
39218;SDS011;24934;52.752;6.964;2022-10-13T04:11:07;83.57;;;42.57;;
39218;SDS011;24934;52.752;6.964;2022-10-13T04:13:35;86.10;;;44.90;;
39218;SDS011;24934;52.752;6.964;2022-10-13T04:16:04;90.07;;;45.63;;
39218;SDS011;24934;52.752;6.964;2022-10-13T04:18:31;86.73;;;44.67;;
39218;SDS011;24934;52.752;6.964;2022-10-13T04:20:57;76.97;;;41.77;;
39218;SDS011;24934;52.752;6.964;2022-10-13T04:23:23;66.93;;;37.63;;
39218;SDS011;24934;52.752;6.964;2022-10-13T04:25:48;61.13;;;33.80;;
39218;SDS011;24934;52.752;6.964;2022-10-13T04:28:14;51.53;;;30.60;;
39218;SDS011;24934;52.752;6.964;2022-10-13T04:30:40;42.33;;;27.23;;
39218;SDS011;24934;52.752;6.964;2022-10-13T04:33:06;43.17;;;26.13;;
39218;SDS011;24934;52.752;6.964;2022-10-13T04:35:32;37.33;;;25.13;;
39218;SDS011;24934;52.752;6.964;2022-10-13T04:37:58;39.37;;;24.13;;
39218;SDS011;24934;52.752;6.964;2022-10-13T04:40:24;32.77;;;23.53;;
39218;SDS011;24934;52.752;6.964;2022-10-13T04:42:51;37.67;;;24.70;;
39218;SDS011;24934;52.752;6.964;2022-10-13T04:45:16;31.83;;;23.77;;
39218;SDS011;24934;52.752;6.964;2022-10-13T04:47:42;36.57;;;23.37;;
39218;SDS011;24934;52.752;6.964;2022-10-13T04:50:08;30.43;;;23.10;;
39218;SDS011;24934;52.752;6.964;2022-10-13T04:52:34;32.00;;;22.37;;
39218;SDS011;24934;52.752;6.964;2022-10-13T04:55:00;30.90;;;22.23;;
39218;SDS011;24934;52.752;6.964;2022-10-13T04:57:26;35.17;;;23.33;;
39218;SDS011;24934;52.752;6.964;2022-10-13T04:59:51;38.10;;;23.70;;
39218;SDS011;24934;52.752;6.964;2022-10-13T05:02:17;32.63;;;22.70;;
39218;SDS011;24934;52.752;6.964;2022-10-13T05:04:42;36.37;;;23.93;;
39218;SDS011;24934;52.752;6.964;2022-10-13T05:07:08;33.27;;;23.70;;
39218;SDS011;24934;52.752;6.964;2022-10-13T05:09:33;36.30;;;24.40;;
39218;SDS011;24934;52.752;6.964;2022-10-13T05:11:59;37.57;;;24.83;;
39218;SDS011;24934;52.752;6.964;2022-10-13T05:14:25;36.03;;;24.53;;
39218;SDS011;24934;52.752;6.964;2022-10-13T05:16:50;33.67;;;23.67;;
39218;SDS011;24934;52.752;6.964;2022-10-13T05:19:16;32.57;;;23.67;;
39218;SDS011;24934;52.752;6.964;2022-10-13T05:21:41;35.97;;;24.53;;
39218;SDS011;24934;52.752;6.964;2022-10-13T05:24:07;35.33;;;24.57;;
39218;SDS011;24934;52.752;6.964;2022-10-13T05:26:37;32.27;;;24.30;;
39218;SDS011;24934;52.752;6.964;2022-10-13T05:29:03;36.03;;;23.73;;
39218;SDS011;24934;52.752;6.964;2022-10-13T05:31:29;37.60;;;25.43;;
39218;SDS011;24934;52.752;6.964;2022-10-13T05:33:56;36.90;;;23.67;;
39218;SDS011;24934;52.752;6.964;2022-10-13T05:36:23;34.13;;;24.33;;
39218;SDS011;24934;52.752;6.964;2022-10-13T05:38:51;33.57;;;23.93;;
39218;SDS011;24934;52.752;6.964;2022-10-13T05:41:18;33.30;;;24.80;;
39218;SDS011;24934;52.752;6.964;2022-10-13T05:43:43;27.47;;;23.37;;
39218;SDS011;24934;52.752;6.964;2022-10-13T05:46:09;37.07;;;24.70;;
39218;SDS011;24934;52.752;6.964;2022-10-13T05:48:36;37.50;;;24.67;;
39218;SDS011;24934;52.752;6.964;2022-10-13T05:51:10;32.63;;;23.53;;
39218;SDS011;24934;52.752;6.964;2022-10-13T05:53:41;35.60;;;24.70;;
39218;SDS011;24934;52.752;6.964;2022-10-13T05:56:11;37.43;;;25.37;;
39218;SDS011;24934;52.752;6.964;2022-10-13T05:58:44;36.70;;;25.20;;
39218;SDS011;24934;52.752;6.964;2022-10-13T06:01:14;42.17;;;25.90;;
39218;SDS011;24934;52.752;6.964;2022-10-13T06:03:43;34.37;;;24.83;;
39218;SDS011;24934;52.752;6.964;2022-10-13T06:06:10;34.90;;;25.57;;
39218;SDS011;24934;52.752;6.964;2022-10-13T06:08:36;38.07;;;25.77;;
39218;SDS011;24934;52.752;6.964;2022-10-13T06:11:03;35.90;;;25.43;;
39218;SDS011;24934;52.752;6.964;2022-10-13T06:13:29;35.70;;;24.03;;
39218;SDS011;24934;52.752;6.964;2022-10-13T06:15:55;38.93;;;24.77;;
39218;SDS011;24934;52.752;6.964;2022-10-13T06:18:20;32.30;;;24.63;;
39218;SDS011;24934;52.752;6.964;2022-10-13T06:20:46;36.03;;;24.97;;
39218;SDS011;24934;52.752;6.964;2022-10-13T06:23:11;41.07;;;24.40;;
39218;SDS011;24934;52.752;6.964;2022-10-13T06:25:37;35.70;;;23.30;;
39218;SDS011;24934;52.752;6.964;2022-10-13T06:28:10;33.00;;;23.10;;
39218;SDS011;24934;52.752;6.964;2022-10-13T06:30:37;40.57;;;23.47;;
39218;SDS011;24934;52.752;6.964;2022-10-13T06:33:02;33.03;;;23.63;;
39218;SDS011;24934;52.752;6.964;2022-10-13T06:35:28;36.47;;;22.33;;
39218;SDS011;24934;52.752;6.964;2022-10-13T06:37:55;31.67;;;23.00;;
39218;SDS011;24934;52.752;6.964;2022-10-13T06:40:21;36.83;;;23.83;;
39218;SDS011;24934;52.752;6.964;2022-10-13T06:42:50;35.40;;;23.60;;
39218;SDS011;24934;52.752;6.964;2022-10-13T06:45:15;34.93;;;24.00;;
39218;SDS011;24934;52.752;6.964;2022-10-13T06:47:43;34.23;;;23.07;;
39218;SDS011;24934;52.752;6.964;2022-10-13T06:50:09;34.47;;;23.93;;
39218;SDS011;24934;52.752;6.964;2022-10-13T06:52:35;36.47;;;24.07;;
39218;SDS011;24934;52.752;6.964;2022-10-13T06:55:01;36.20;;;23.40;;
39218;SDS011;24934;52.752;6.964;2022-10-13T06:57:26;33.50;;;23.43;;
39218;SDS011;24934;52.752;6.964;2022-10-13T06:59:52;36.90;;;23.30;;
39218;SDS011;24934;52.752;6.964;2022-10-13T07:02:18;36.70;;;24.80;;
39218;SDS011;24934;52.752;6.964;2022-10-13T07:04:45;36.57;;;24.00;;
39218;SDS011;24934;52.752;6.964;2022-10-13T07:07:11;39.57;;;23.07;;
39218;SDS011;24934;52.752;6.964;2022-10-13T07:09:37;31.57;;;23.30;;
39218;SDS011;24934;52.752;6.964;2022-10-13T07:12:03;34.50;;;22.70;;
39218;SDS011;24934;52.752;6.964;2022-10-13T07:14:28;33.77;;;22.90;;
39218;SDS011;24934;52.752;6.964;2022-10-13T07:16:54;35.77;;;22.37;;
39218;SDS011;24934;52.752;6.964;2022-10-13T07:19:20;35.73;;;22.63;;
39218;SDS011;24934;52.752;6.964;2022-10-13T07:21:46;34.80;;;22.07;;
39218;SDS011;24934;52.752;6.964;2022-10-13T07:24:12;37.17;;;22.67;;
39218;SDS011;24934;52.752;6.964;2022-10-13T07:26:37;30.70;;;21.90;;
39218;SDS011;24934;52.752;6.964;2022-10-13T07:29:03;36.30;;;21.20;;
39218;SDS011;24934;52.752;6.964;2022-10-13T07:31:29;36.77;;;23.73;;
39218;SDS011;24934;52.752;6.964;2022-10-13T07:33:56;34.33;;;21.77;;
39218;SDS011;24934;52.752;6.964;2022-10-13T07:36:22;30.20;;;21.80;;
39218;SDS011;24934;52.752;6.964;2022-10-13T07:38:48;34.47;;;21.60;;
39218;SDS011;24934;52.752;6.964;2022-10-13T07:41:14;30.37;;;20.73;;
39218;SDS011;24934;52.752;6.964;2022-10-13T07:43:39;31.07;;;21.37;;
39218;SDS011;24934;52.752;6.964;2022-10-13T07:46:06;30.03;;;21.20;;
39218;SDS011;24934;52.752;6.964;2022-10-13T07:48:32;33.53;;;22.03;;
39218;SDS011;24934;52.752;6.964;2022-10-13T07:51:01;30.60;;;20.67;;
39218;SDS011;24934;52.752;6.964;2022-10-13T07:53:29;32.17;;;20.90;;
39218;SDS011;24934;52.752;6.964;2022-10-13T07:55:58;30.52;;;21.15;;
39218;SDS011;24934;52.752;6.964;2022-10-13T07:58:25;30.60;;;21.58;;
39218;SDS011;24934;52.752;6.964;2022-10-13T08:00:54;31.67;;;20.48;;
39218;SDS011;24934;52.752;6.964;2022-10-13T08:03:24;29.00;;;20.08;;
39218;SDS011;24934;52.752;6.964;2022-10-13T08:05:50;27.25;;;19.92;;
39218;SDS011;24934;52.752;6.964;2022-10-13T08:08:16;32.15;;;21.23;;
39218;SDS011;24934;52.752;6.964;2022-10-13T08:10:41;32.80;;;20.73;;
39218;SDS011;24934;52.752;6.964;2022-10-13T08:13:08;27.35;;;20.13;;
39218;SDS011;24934;52.752;6.964;2022-10-13T08:15:38;30.17;;;19.77;;
39218;SDS011;24934;52.752;6.964;2022-10-13T08:18:05;30.17;;;19.92;;
39218;SDS011;24934;52.752;6.964;2022-10-13T08:20:30;29.58;;;19.73;;
39218;SDS011;24934;52.752;6.964;2022-10-13T08:22:56;27.95;;;19.73;;
39218;SDS011;24934;52.752;6.964;2022-10-13T08:25:22;31.17;;;19.80;;
39218;SDS011;24934;52.752;6.964;2022-10-13T08:27:47;31.15;;;20.25;;
39218;SDS011;24934;52.752;6.964;2022-10-13T08:30:13;26.80;;;19.27;;
39218;SDS011;24934;52.752;6.964;2022-10-13T08:32:38;32.75;;;19.52;;
39218;SDS011;24934;52.752;6.964;2022-10-13T08:35:05;32.70;;;19.02;;
39218;SDS011;24934;52.752;6.964;2022-10-13T08:37:30;26.17;;;19.52;;
39218;SDS011;24934;52.752;6.964;2022-10-13T08:39:56;32.88;;;19.88;;
39218;SDS011;24934;52.752;6.964;2022-10-13T08:42:22;27.95;;;19.38;;
39218;SDS011;24934;52.752;6.964;2022-10-13T08:44:52;31.70;;;19.85;;
39218;SDS011;24934;52.752;6.964;2022-10-13T08:47:29;25.83;;;19.25;;
39218;SDS011;24934;52.752;6.964;2022-10-13T08:50:18;33.17;;;20.20;;
39218;SDS011;24934;52.752;6.964;2022-10-13T08:52:48;25.42;;;18.35;;
39218;SDS011;24934;52.752;6.964;2022-10-13T08:55:28;26.65;;;18.85;;
39218;SDS011;24934;52.752;6.964;2022-10-13T08:57:59;29.05;;;19.55;;
39218;SDS011;24934;52.752;6.964;2022-10-13T09:00:27;27.65;;;18.95;;
39218;SDS011;24934;52.752;6.964;2022-10-13T09:02:53;30.15;;;20.10;;
39218;SDS011;24934;52.752;6.964;2022-10-13T09:05:42;27.30;;;19.98;;
39218;SDS011;24934;52.752;6.964;2022-10-13T09:08:20;35.13;;;20.85;;
39218;SDS011;24934;52.752;6.964;2022-10-13T09:10:48;29.83;;;19.80;;
39218;SDS011;24934;52.752;6.964;2022-10-13T09:13:14;39.05;;;19.55;;
39218;SDS011;24934;52.752;6.964;2022-10-13T09:15:43;28.90;;;19.30;;
39218;SDS011;24934;52.752;6.964;2022-10-13T09:18:11;28.35;;;20.00;;
39218;SDS011;24934;52.752;6.964;2022-10-13T09:20:37;31.60;;;20.90;;
39218;SDS011;24934;52.752;6.964;2022-10-13T09:23:05;38.50;;;21.35;;
39218;SDS011;24934;52.752;6.964;2022-10-13T09:25:37;29.13;;;20.48;;
39218;SDS011;24934;52.752;6.964;2022-10-13T09:28:09;32.05;;;20.70;;
39218;SDS011;24934;52.752;6.964;2022-10-13T09:30:41;30.63;;;19.23;;
39218;SDS011;24934;52.752;6.964;2022-10-13T09:35:35;29.67;;;20.02;;
39218;SDS011;24934;52.752;6.964;2022-10-13T09:38:10;27.63;;;19.65;;
39218;SDS011;24934;52.752;6.964;2022-10-13T09:40:43;28.85;;;19.60;;
39218;SDS011;24934;52.752;6.964;2022-10-13T09:45:58;32.03;;;19.33;;
39218;SDS011;24934;52.752;6.964;2022-10-13T09:48:28;32.20;;;19.70;;
39218;SDS011;24934;52.752;6.964;2022-10-13T09:50:56;29.52;;;21.38;;
39218;SDS011;24934;52.752;6.964;2022-10-13T09:56:06;29.98;;;19.75;;
39218;SDS011;24934;52.752;6.964;2022-10-13T10:01:36;28.40;;;19.30;;
39218;SDS011;24934;52.752;6.964;2022-10-13T10:04:06;26.10;;;20.30;;
39218;SDS011;24934;52.752;6.964;2022-10-13T10:06:36;27.23;;;19.88;;
39218;SDS011;24934;52.752;6.964;2022-10-13T10:09:08;27.30;;;20.02;;
39218;SDS011;24934;52.752;6.964;2022-10-13T10:11:57;27.33;;;20.02;;
39218;SDS011;24934;52.752;6.964;2022-10-13T10:14:25;30.40;;;20.25;;
39218;SDS011;24934;52.752;6.964;2022-10-13T10:16:55;24.88;;;20.55;;
39218;SDS011;24934;52.752;6.964;2022-10-13T10:25:21;29.42;;;21.00;;
39218;SDS011;24934;52.752;6.964;2022-10-13T10:27:44;28.27;;;21.52;;
39218;SDS011;24934;52.752;6.964;2022-10-13T10:30:25;26.65;;;21.15;;
39218;SDS011;24934;52.752;6.964;2022-10-13T10:33:17;26.60;;;21.48;;
39218;SDS011;24934;52.752;6.964;2022-10-13T10:36:18;28.02;;;23.55;;
39218;SDS011;24934;52.752;6.964;2022-10-13T10:38:46;32.35;;;23.27;;
39218;SDS011;24934;52.752;6.964;2022-10-13T10:41:43;32.45;;;24.40;;
39218;SDS011;24934;52.752;6.964;2022-10-13T10:44:14;32.28;;;23.02;;
39218;SDS011;24934;52.752;6.964;2022-10-13T10:46:49;30.42;;;22.65;;
39218;SDS011;24934;52.752;6.964;2022-10-13T10:49:19;30.38;;;23.20;;
39218;SDS011;24934;52.752;6.964;2022-10-13T10:51:51;31.60;;;21.90;;
39218;SDS011;24934;52.752;6.964;2022-10-13T10:56:56;31.63;;;22.77;;
39218;SDS011;24934;52.752;6.964;2022-10-13T11:04:56;28.67;;;22.58;;
39218;SDS011;24934;52.752;6.964;2022-10-13T11:17:28;30.85;;;22.60;;
39218;SDS011;24934;52.752;6.964;2022-10-13T11:19:55;29.60;;;22.60;;
39218;SDS011;24934;52.752;6.964;2022-10-13T11:22:23;30.42;;;21.77;;
39218;SDS011;24934;52.752;6.964;2022-10-13T11:24:51;27.52;;;23.02;;
39218;SDS011;24934;52.752;6.964;2022-10-13T11:27:40;35.15;;;24.10;;
39218;SDS011;24934;52.752;6.964;2022-10-13T11:30:38;33.00;;;22.92;;
39218;SDS011;24934;52.752;6.964;2022-10-13T11:38:55;33.83;;;23.95;;
39218;SDS011;24934;52.752;6.964;2022-10-13T11:41:24;29.80;;;22.85;;
39218;SDS011;24934;52.752;6.964;2022-10-13T11:44:07;31.63;;;23.55;;
39218;SDS011;24934;52.752;6.964;2022-10-13T11:46:54;31.00;;;23.23;;
39218;SDS011;24934;52.752;6.964;2022-10-13T11:49:35;37.78;;;25.17;;
39218;SDS011;24934;52.752;6.964;2022-10-13T11:52:10;32.63;;;24.58;;
39218;SDS011;24934;52.752;6.964;2022-10-13T11:55:10;33.30;;;24.83;;
39218;SDS011;24934;52.752;6.964;2022-10-13T11:57:38;33.92;;;24.85;;
39218;SDS011;24934;52.752;6.964;2022-10-13T12:00:10;34.70;;;25.27;;
39218;SDS011;24934;52.752;6.964;2022-10-13T12:02:46;34.75;;;25.40;;
39218;SDS011;24934;52.752;6.964;2022-10-13T12:05:23;31.23;;;25.23;;
39218;SDS011;24934;52.752;6.964;2022-10-13T12:07:51;33.63;;;25.98;;
39218;SDS011;24934;52.752;6.964;2022-10-13T12:10:23;32.85;;;25.48;;
39218;SDS011;24934;52.752;6.964;2022-10-13T12:12:57;34.05;;;26.25;;
39218;SDS011;24934;52.752;6.964;2022-10-13T12:15:27;34.60;;;26.00;;
39218;SDS011;24934;52.752;6.964;2022-10-13T12:17:59;37.58;;;27.80;;
39218;SDS011;24934;52.752;6.964;2022-10-13T12:20:27;41.65;;;30.40;;
39218;SDS011;24934;52.752;6.964;2022-10-13T12:22:54;45.90;;;35.15;;
39218;SDS011;24934;52.752;6.964;2022-10-13T12:25:21;51.03;;;37.75;;
39218;SDS011;24934;52.752;6.964;2022-10-13T12:27:50;47.67;;;37.75;;
39218;SDS011;24934;52.752;6.964;2022-10-13T12:30:25;45.25;;;37.78;;
39218;SDS011;24934;52.752;6.964;2022-10-13T12:32:52;51.05;;;39.97;;
39218;SDS011;24934;52.752;6.964;2022-10-13T12:35:21;54.60;;;41.17;;
39218;SDS011;24934;52.752;6.964;2022-10-13T12:37:49;60.38;;;41.45;;
39218;SDS011;24934;52.752;6.964;2022-10-13T12:40:16;54.00;;;42.90;;
39218;SDS011;24934;52.752;6.964;2022-10-13T12:42:43;56.20;;;41.67;;
39218;SDS011;24934;52.752;6.964;2022-10-13T12:45:12;57.20;;;40.90;;
39218;SDS011;24934;52.752;6.964;2022-10-13T12:50:19;57.53;;;43.45;;
39218;SDS011;24934;52.752;6.964;2022-10-13T12:55:27;55.75;;;41.40;;
39218;SDS011;24934;52.752;6.964;2022-10-13T12:57:53;58.33;;;41.60;;
39218;SDS011;24934;52.752;6.964;2022-10-13T13:03:00;51.58;;;41.67;;
39218;SDS011;24934;52.752;6.964;2022-10-13T13:05:31;50.63;;;40.10;;
39218;SDS011;24934;52.752;6.964;2022-10-13T13:08:02;50.42;;;39.67;;
39218;SDS011;24934;52.752;6.964;2022-10-13T13:10:29;46.47;;;38.30;;
39218;SDS011;24934;52.752;6.964;2022-10-13T13:12:55;48.17;;;37.95;;
39218;SDS011;24934;52.752;6.964;2022-10-13T13:15:36;50.80;;;39.33;;
39218;SDS011;24934;52.752;6.964;2022-10-13T13:20:50;46.20;;;37.65;;
39218;SDS011;24934;52.752;6.964;2022-10-13T13:23:16;51.20;;;38.50;;
39218;SDS011;24934;52.752;6.964;2022-10-13T13:25:43;50.60;;;37.97;;
39218;SDS011;24934;52.752;6.964;2022-10-13T13:28:10;44.55;;;37.92;;
39218;SDS011;24934;52.752;6.964;2022-10-13T13:30:38;46.15;;;37.63;;
39218;SDS011;24934;52.752;6.964;2022-10-13T13:33:04;47.13;;;37.78;;
39218;SDS011;24934;52.752;6.964;2022-10-13T13:35:30;45.08;;;37.22;;
39218;SDS011;24934;52.752;6.964;2022-10-13T13:37:57;47.55;;;38.05;;
39218;SDS011;24934;52.752;6.964;2022-10-13T13:40:24;51.22;;;37.92;;
39218;SDS011;24934;52.752;6.964;2022-10-13T13:42:51;48.65;;;37.47;;
39218;SDS011;24934;52.752;6.964;2022-10-13T13:45:20;47.25;;;38.00;;
39218;SDS011;24934;52.752;6.964;2022-10-13T13:47:46;44.20;;;37.35;;
39218;SDS011;24934;52.752;6.964;2022-10-13T13:50:32;44.55;;;35.67;;
39218;SDS011;24934;52.752;6.964;2022-10-13T13:53:00;43.50;;;35.75;;
39218;SDS011;24934;52.752;6.964;2022-10-13T13:55:26;45.90;;;37.17;;
39218;SDS011;24934;52.752;6.964;2022-10-13T13:57:53;44.67;;;36.25;;
39218;SDS011;24934;52.752;6.964;2022-10-13T14:00:19;44.13;;;34.97;;
39218;SDS011;24934;52.752;6.964;2022-10-13T14:02:45;40.72;;;33.85;;
39218;SDS011;24934;52.752;6.964;2022-10-13T14:05:11;41.13;;;34.45;;
39218;SDS011;24934;52.752;6.964;2022-10-13T14:07:37;42.72;;;34.20;;
39218;SDS011;24934;52.752;6.964;2022-10-13T14:10:03;43.22;;;32.95;;
39218;SDS011;24934;52.752;6.964;2022-10-13T14:12:29;37.55;;;33.28;;
39218;SDS011;24934;52.752;6.964;2022-10-13T14:14:55;38.75;;;32.88;;
39218;SDS011;24934;52.752;6.964;2022-10-13T14:17:22;43.20;;;33.30;;
39218;SDS011;24934;52.752;6.964;2022-10-13T14:19:48;43.78;;;35.35;;
39218;SDS011;24934;52.752;6.964;2022-10-13T14:22:14;37.38;;;33.05;;
39218;SDS011;24934;52.752;6.964;2022-10-13T14:24:39;38.42;;;31.90;;
39218;SDS011;24934;52.752;6.964;2022-10-13T14:27:05;38.53;;;31.95;;
39218;SDS011;24934;52.752;6.964;2022-10-13T14:29:32;37.63;;;32.03;;
39218;SDS011;24934;52.752;6.964;2022-10-13T14:31:58;37.83;;;30.77;;
39218;SDS011;24934;52.752;6.964;2022-10-13T14:34:24;40.00;;;31.90;;
39218;SDS011;24934;52.752;6.964;2022-10-13T14:36:50;39.05;;;32.85;;
39218;SDS011;24934;52.752;6.964;2022-10-13T14:39:15;39.30;;;31.42;;
39218;SDS011;24934;52.752;6.964;2022-10-13T14:41:41;36.10;;;31.30;;
39218;SDS011;24934;52.752;6.964;2022-10-13T14:44:08;36.30;;;29.77;;
39218;SDS011;24934;52.752;6.964;2022-10-13T14:46:36;34.63;;;30.35;;
39218;SDS011;24934;52.752;6.964;2022-10-13T14:49:01;33.42;;;29.85;;
39218;SDS011;24934;52.752;6.964;2022-10-13T14:51:27;36.78;;;29.77;;
39218;SDS011;24934;52.752;6.964;2022-10-13T14:53:55;38.38;;;29.45;;
39218;SDS011;24934;52.752;6.964;2022-10-13T14:56:25;34.10;;;28.25;;
39218;SDS011;24934;52.752;6.964;2022-10-13T14:58:55;32.45;;;25.83;;
39218;SDS011;24934;52.752;6.964;2022-10-13T15:01:21;33.47;;;26.80;;
39218;SDS011;24934;52.752;6.964;2022-10-13T15:03:47;32.78;;;25.92;;
39218;SDS011;24934;52.752;6.964;2022-10-13T15:06:14;34.45;;;26.65;;
39218;SDS011;24934;52.752;6.964;2022-10-13T15:08:42;33.95;;;25.33;;
39218;SDS011;24934;52.752;6.964;2022-10-13T15:11:08;29.08;;;24.08;;
39218;SDS011;24934;52.752;6.964;2022-10-13T15:13:34;29.17;;;24.10;;
39218;SDS011;24934;52.752;6.964;2022-10-13T15:16:03;30.33;;;24.30;;
39218;SDS011;24934;52.752;6.964;2022-10-13T15:18:30;34.90;;;25.88;;
39218;SDS011;24934;52.752;6.964;2022-10-13T15:20:56;34.42;;;26.52;;
39218;SDS011;24934;52.752;6.964;2022-10-13T15:23:21;28.70;;;25.05;;
39218;SDS011;24934;52.752;6.964;2022-10-13T15:25:48;31.92;;;25.73;;
39218;SDS011;24934;52.752;6.964;2022-10-13T15:28:20;30.30;;;26.13;;
39218;SDS011;24934;52.752;6.964;2022-10-13T15:30:50;33.50;;;26.65;;
39218;SDS011;24934;52.752;6.964;2022-10-13T15:33:16;37.25;;;28.73;;
39218;SDS011;24934;52.752;6.964;2022-10-13T15:35:41;33.08;;;27.88;;
39218;SDS011;24934;52.752;6.964;2022-10-13T15:38:07;37.10;;;29.45;;
39218;SDS011;24934;52.752;6.964;2022-10-13T15:40:33;36.05;;;29.10;;
39218;SDS011;24934;52.752;6.964;2022-10-13T15:42:59;34.95;;;30.30;;